sensor_id;sensor_type;location;lat;lon;timestamp;temperature;humidity
6118;DHT22;3089;48.202;11.510;2023-04-24T00:02:15;13.20;99.90
6118;DHT22;3089;48.202;11.510;2023-04-24T00:04:43;13.20;99.90
6118;DHT22;3089;48.202;11.510;2023-04-24T00:07:13;13.10;99.90
6118;DHT22;3089;48.202;11.510;2023-04-24T00:09:43;13.10;99.90
6118;DHT22;3089;48.202;11.510;2023-04-24T00:12:11;13.10;99.90
6118;DHT22;3089;48.202;11.510;2023-04-24T00:14:39;13.10;99.90
6118;DHT22;3089;48.202;11.510;2023-04-24T00:17:07;13.10;99.90
6118;DHT22;3089;48.202;11.510;2023-04-24T00:19:34;13.00;99.90
6118;DHT22;3089;48.202;11.510;2023-04-24T00:22:02;13.00;99.90
6118;DHT22;3089;48.202;11.510;2023-04-24T00:24:32;13.00;99.90
6118;DHT22;3089;48.202;11.510;2023-04-24T00:26:59;13.00;99.90
6118;DHT22;3089;48.202;11.510;2023-04-24T00:29:29;13.00;99.90
6118;DHT22;3089;48.202;11.510;2023-04-24T00:31:56;13.00;99.90
6118;DHT22;3089;48.202;11.510;2023-04-24T00:34:24;13.00;99.90
6118;DHT22;3089;48.202;11.510;2023-04-24T00:36:52;13.00;99.90
6118;DHT22;3089;48.202;11.510;2023-04-24T00:39:20;13.00;99.90
6118;DHT22;3089;48.202;11.510;2023-04-24T00:41:49;12.90;99.90
6118;DHT22;3089;48.202;11.510;2023-04-24T00:44:18;12.90;99.90
6118;DHT22;3089;48.202;11.510;2023-04-24T00:46:46;12.90;99.90
6118;DHT22;3089;48.202;11.510;2023-04-24T00:49:18;13.00;99.90
6118;DHT22;3089;48.202;11.510;2023-04-24T00:51:46;12.90;99.90
6118;DHT22;3089;48.202;11.510;2023-04-24T00:54:14;12.90;99.90
6118;DHT22;3089;48.202;11.510;2023-04-24T00:56:42;12.80;99.90
6118;DHT22;3089;48.202;11.510;2023-04-24T00:59:12;12.90;99.90
6118;DHT22;3089;48.202;11.510;2023-04-24T01:01:40;12.90;99.90
6118;DHT22;3089;48.202;11.510;2023-04-24T01:04:09;12.80;99.90
6118;DHT22;3089;48.202;11.510;2023-04-24T01:06:39;12.80;99.90
6118;DHT22;3089;48.202;11.510;2023-04-24T01:09:07;12.80;99.90
6118;DHT22;3089;48.202;11.510;2023-04-24T01:11:36;12.80;99.90
6118;DHT22;3089;48.202;11.510;2023-04-24T01:14:04;12.80;99.90
6118;DHT22;3089;48.202;11.510;2023-04-24T01:16:33;12.70;99.90
6118;DHT22;3089;48.202;11.510;2023-04-24T01:19:02;12.80;99.90
6118;DHT22;3089;48.202;11.510;2023-04-24T01:21:30;12.80;99.90
6118;DHT22;3089;48.202;11.510;2023-04-24T01:24:03;12.80;99.90
6118;DHT22;3089;48.202;11.510;2023-04-24T01:26:32;12.70;99.90
6118;DHT22;3089;48.202;11.510;2023-04-24T01:29:00;12.70;99.90
6118;DHT22;3089;48.202;11.510;2023-04-24T01:31:28;12.60;99.90
6118;DHT22;3089;48.202;11.510;2023-04-24T01:33:56;12.60;99.90
6118;DHT22;3089;48.202;11.510;2023-04-24T01:36:25;12.60;99.90
6118;DHT22;3089;48.202;11.510;2023-04-24T01:38:54;12.60;99.90
6118;DHT22;3089;48.202;11.510;2023-04-24T01:41:24;12.60;99.90
6118;DHT22;3089;48.202;11.510;2023-04-24T01:43:52;12.60;99.90
6118;DHT22;3089;48.202;11.510;2023-04-24T01:46:21;12.50;99.90
6118;DHT22;3089;48.202;11.510;2023-04-24T01:48:49;12.50;99.90
6118;DHT22;3089;48.202;11.510;2023-04-24T01:51:18;12.50;99.90
6118;DHT22;3089;48.202;11.510;2023-04-24T01:53:46;12.60;99.90
6118;DHT22;3089;48.202;11.510;2023-04-24T01:56:14;12.50;99.90
6118;DHT22;3089;48.202;11.510;2023-04-24T01:58:44;12.50;99.90
6118;DHT22;3089;48.202;11.510;2023-04-24T02:01:15;12.50;99.90
6118;DHT22;3089;48.202;11.510;2023-04-24T02:03:45;12.40;99.90
6118;DHT22;3089;48.202;11.510;2023-04-24T02:06:13;12.40;99.90
6118;DHT22;3089;48.202;11.510;2023-04-24T02:08:41;12.40;99.90
6118;DHT22;3089;48.202;11.510;2023-04-24T02:11:09;12.50;99.90
6118;DHT22;3089;48.202;11.510;2023-04-24T02:13:37;12.40;99.90
6118;DHT22;3089;48.202;11.510;2023-04-24T02:16:06;12.40;99.90
6118;DHT22;3089;48.202;11.510;2023-04-24T02:18:34;12.40;99.90
6118;DHT22;3089;48.202;11.510;2023-04-24T02:21:01;12.40;99.90
6118;DHT22;3089;48.202;11.510;2023-04-24T02:23:29;12.40;99.90
6118;DHT22;3089;48.202;11.510;2023-04-24T02:25:57;12.40;99.90
6118;DHT22;3089;48.202;11.510;2023-04-24T02:28:25;12.30;99.90
6118;DHT22;3089;48.202;11.510;2023-04-24T02:30:52;12.30;99.90
6118;DHT22;3089;48.202;11.510;2023-04-24T02:33:22;12.30;99.90
6118;DHT22;3089;48.202;11.510;2023-04-24T02:35:49;12.30;99.90
6118;DHT22;3089;48.202;11.510;2023-04-24T02:38:17;12.30;99.90
6118;DHT22;3089;48.202;11.510;2023-04-24T02:40:45;12.30;99.90
6118;DHT22;3089;48.202;11.510;2023-04-24T02:43:13;12.30;99.90
6118;DHT22;3089;48.202;11.510;2023-04-24T02:45:41;12.30;99.90
6118;DHT22;3089;48.202;11.510;2023-04-24T02:48:08;12.20;99.90
6118;DHT22;3089;48.202;11.510;2023-04-24T02:50:38;12.30;99.90
6118;DHT22;3089;48.202;11.510;2023-04-24T02:53:06;12.30;99.90
6118;DHT22;3089;48.202;11.510;2023-04-24T02:55:34;12.20;99.90
6118;DHT22;3089;48.202;11.510;2023-04-24T02:58:02;12.20;99.90
6118;DHT22;3089;48.202;11.510;2023-04-24T03:00:29;12.20;99.90
6118;DHT22;3089;48.202;11.510;2023-04-24T03:02:57;12.10;99.90
6118;DHT22;3089;48.202;11.510;2023-04-24T03:05:25;12.10;99.90
6118;DHT22;3089;48.202;11.510;2023-04-24T03:07:55;12.10;99.90
6118;DHT22;3089;48.202;11.510;2023-04-24T03:10:22;12.00;99.90
6118;DHT22;3089;48.202;11.510;2023-04-24T03:12:51;12.10;99.90
6118;DHT22;3089;48.202;11.510;2023-04-24T03:15:19;12.10;99.90
6118;DHT22;3089;48.202;11.510;2023-04-24T03:17:46;12.00;99.90
6118;DHT22;3089;48.202;11.510;2023-04-24T03:20:14;12.00;99.90
6118;DHT22;3089;48.202;11.510;2023-04-24T03:22:42;12.00;99.90
6118;DHT22;3089;48.202;11.510;2023-04-24T03:25:12;12.00;99.90
6118;DHT22;3089;48.202;11.510;2023-04-24T03:27:40;12.10;99.90
6118;DHT22;3089;48.202;11.510;2023-04-24T03:30:08;12.00;99.90
6118;DHT22;3089;48.202;11.510;2023-04-24T03:32:36;12.00;99.90
6118;DHT22;3089;48.202;11.510;2023-04-24T03:35:06;12.40;99.90
6118;DHT22;3089;48.202;11.510;2023-04-24T03:37:34;11.90;99.90
6118;DHT22;3089;48.202;11.510;2023-04-24T03:40:03;11.90;99.90
6118;DHT22;3089;48.202;11.510;2023-04-24T03:42:33;11.90;99.90
6118;DHT22;3089;48.202;11.510;2023-04-24T03:45:05;11.90;99.90
6118;DHT22;3089;48.202;11.510;2023-04-24T03:47:33;11.90;99.90
6118;DHT22;3089;48.202;11.510;2023-04-24T03:50:02;11.90;99.90
6118;DHT22;3089;48.202;11.510;2023-04-24T03:52:30;11.80;99.90
6118;DHT22;3089;48.202;11.510;2023-04-24T03:54:58;11.80;99.90
6118;DHT22;3089;48.202;11.510;2023-04-24T03:57:25;11.70;99.90
6118;DHT22;3089;48.202;11.510;2023-04-24T03:59:54;11.70;99.90
6118;DHT22;3089;48.202;11.510;2023-04-24T04:02:22;11.70;99.90
6118;DHT22;3089;48.202;11.510;2023-04-24T04:04:50;11.70;99.90
6118;DHT22;3089;48.202;11.510;2023-04-24T04:07:18;11.70;99.90
6118;DHT22;3089;48.202;11.510;2023-04-24T04:09:46;11.60;99.90
6118;DHT22;3089;48.202;11.510;2023-04-24T04:12:14;11.70;99.90
6118;DHT22;3089;48.202;11.510;2023-04-24T04:14:41;11.70;99.90
6118;DHT22;3089;48.202;11.510;2023-04-24T04:17:10;11.80;99.90
6118;DHT22;3089;48.202;11.510;2023-04-24T04:19:38;11.60;99.90
6118;DHT22;3089;48.202;11.510;2023-04-24T04:22:06;11.70;99.90
6118;DHT22;3089;48.202;11.510;2023-04-24T04:24:34;11.60;99.90
6118;DHT22;3089;48.202;11.510;2023-04-24T04:27:04;11.60;99.90
6118;DHT22;3089;48.202;11.510;2023-04-24T04:29:32;11.60;99.90
6118;DHT22;3089;48.202;11.510;2023-04-24T04:32:01;11.60;99.90
6118;DHT22;3089;48.202;11.510;2023-04-24T04:34:30;11.60;99.90
6118;DHT22;3089;48.202;11.510;2023-04-24T04:36:59;11.50;99.90
6118;DHT22;3089;48.202;11.510;2023-04-24T04:39:28;11.60;99.90
6118;DHT22;3089;48.202;11.510;2023-04-24T04:41:57;11.50;99.90
6118;DHT22;3089;48.202;11.510;2023-04-24T04:44:25;11.50;99.90
6118;DHT22;3089;48.202;11.510;2023-04-24T04:46:56;11.50;99.90
6118;DHT22;3089;48.202;11.510;2023-04-24T04:49:25;11.50;99.90
6118;DHT22;3089;48.202;11.510;2023-04-24T04:51:56;11.50;99.90
6118;DHT22;3089;48.202;11.510;2023-04-24T04:54:24;11.60;99.90
6118;DHT22;3089;48.202;11.510;2023-04-24T04:56:52;11.60;99.90
6118;DHT22;3089;48.202;11.510;2023-04-24T04:59:19;11.50;99.90
6118;DHT22;3089;48.202;11.510;2023-04-24T05:01:47;11.50;99.90
6118;DHT22;3089;48.202;11.510;2023-04-24T05:04:15;11.50;99.90
6118;DHT22;3089;48.202;11.510;2023-04-24T05:06:43;11.50;99.90
6118;DHT22;3089;48.202;11.510;2023-04-24T05:09:12;11.50;99.90
6118;DHT22;3089;48.202;11.510;2023-04-24T05:11:40;11.40;99.90
6118;DHT22;3089;48.202;11.510;2023-04-24T05:14:08;11.40;99.90
6118;DHT22;3089;48.202;11.510;2023-04-24T05:16:36;11.50;99.90
6118;DHT22;3089;48.202;11.510;2023-04-24T05:19:04;11.40;99.90
6118;DHT22;3089;48.202;11.510;2023-04-24T05:21:32;11.40;99.90
6118;DHT22;3089;48.202;11.510;2023-04-24T05:24:02;11.50;99.90
6118;DHT22;3089;48.202;11.510;2023-04-24T05:26:31;11.50;99.90
6118;DHT22;3089;48.202;11.510;2023-04-24T05:28:59;11.40;99.90
6118;DHT22;3089;48.202;11.510;2023-04-24T05:31:27;11.20;99.90
6118;DHT22;3089;48.202;11.510;2023-04-24T05:33:55;10.90;99.90
6118;DHT22;3089;48.202;11.510;2023-04-24T05:36:23;10.70;99.90
6118;DHT22;3089;48.202;11.510;2023-04-24T05:38:51;11.00;99.90
6118;DHT22;3089;48.202;11.510;2023-04-24T05:41:19;11.20;99.90
6118;DHT22;3089;48.202;11.510;2023-04-24T05:43:49;11.30;99.90
6118;DHT22;3089;48.202;11.510;2023-04-24T05:46:17;11.40;99.90
6118;DHT22;3089;48.202;11.510;2023-04-24T05:48:45;11.30;99.90
6118;DHT22;3089;48.202;11.510;2023-04-24T05:51:13;11.30;99.90
6118;DHT22;3089;48.202;11.510;2023-04-24T05:53:41;11.30;99.90
6118;DHT22;3089;48.202;11.510;2023-04-24T05:56:09;11.30;99.90
6118;DHT22;3089;48.202;11.510;2023-04-24T05:58:36;11.30;99.90
6118;DHT22;3089;48.202;11.510;2023-04-24T06:01:06;11.30;99.90
6118;DHT22;3089;48.202;11.510;2023-04-24T06:03:34;11.40;99.90
6118;DHT22;3089;48.202;11.510;2023-04-24T06:06:02;11.40;99.90
6118;DHT22;3089;48.202;11.510;2023-04-24T06:08:29;11.40;99.90
6118;DHT22;3089;48.202;11.510;2023-04-24T06:10:57;11.40;99.90
6118;DHT22;3089;48.202;11.510;2023-04-24T06:13:26;11.50;99.90
6118;DHT22;3089;48.202;11.510;2023-04-24T06:15:54;11.60;99.90
6118;DHT22;3089;48.202;11.510;2023-04-24T06:18:23;11.60;99.90
6118;DHT22;3089;48.202;11.510;2023-04-24T06:20:51;11.60;99.90
6118;DHT22;3089;48.202;11.510;2023-04-24T06:23:19;11.60;99.90
6118;DHT22;3089;48.202;11.510;2023-04-24T06:25:47;11.60;99.90
6118;DHT22;3089;48.202;11.510;2023-04-24T06:28:15;11.50;99.90
6118;DHT22;3089;48.202;11.510;2023-04-24T06:30:42;11.60;99.90
6118;DHT22;3089;48.202;11.510;2023-04-24T06:33:10;11.60;99.90
6118;DHT22;3089;48.202;11.510;2023-04-24T06:35:49;11.60;99.90
6118;DHT22;3089;48.202;11.510;2023-04-24T06:38:17;11.60;99.90
6118;DHT22;3089;48.202;11.510;2023-04-24T06:40:45;11.50;99.90
6118;DHT22;3089;48.202;11.510;2023-04-24T06:43:13;11.60;99.90
6118;DHT22;3089;48.202;11.510;2023-04-24T06:45:41;11.60;99.90
6118;DHT22;3089;48.202;11.510;2023-04-24T06:48:10;11.60;99.90
6118;DHT22;3089;48.202;11.510;2023-04-24T06:50:38;11.70;99.90
6118;DHT22;3089;48.202;11.510;2023-04-24T06:53:07;11.80;99.90
6118;DHT22;3089;48.202;11.510;2023-04-24T06:55:37;12.00;99.90
6118;DHT22;3089;48.202;11.510;2023-04-24T06:58:05;12.10;99.90
6118;DHT22;3089;48.202;11.510;2023-04-24T07:00:33;11.90;99.90
6118;DHT22;3089;48.202;11.510;2023-04-24T07:03:01;11.90;99.90
6118;DHT22;3089;48.202;11.510;2023-04-24T07:05:29;11.80;99.90
6118;DHT22;3089;48.202;11.510;2023-04-24T07:07:56;12.20;99.90
6118;DHT22;3089;48.202;11.510;2023-04-24T07:10:27;12.50;99.90
6118;DHT22;3089;48.202;11.510;2023-04-24T07:12:55;12.70;99.90
6118;DHT22;3089;48.202;11.510;2023-04-24T07:15:23;12.80;99.90
6118;DHT22;3089;48.202;11.510;2023-04-24T07:17:51;12.30;99.90
6118;DHT22;3089;48.202;11.510;2023-04-24T07:20:19;12.20;99.90
6118;DHT22;3089;48.202;11.510;2023-04-24T07:22:47;12.10;99.90
6118;DHT22;3089;48.202;11.510;2023-04-24T07:25:15;12.00;99.90
6118;DHT22;3089;48.202;11.510;2023-04-24T07:27:46;11.90;99.90
6118;DHT22;3089;48.202;11.510;2023-04-24T07:30:15;11.90;99.90
6118;DHT22;3089;48.202;11.510;2023-04-24T07:32:43;11.90;99.90
6118;DHT22;3089;48.202;11.510;2023-04-24T07:35:11;11.80;99.90
6118;DHT22;3089;48.202;11.510;2023-04-24T07:37:39;11.90;99.90
6118;DHT22;3089;48.202;11.510;2023-04-24T07:40:12;11.90;99.90
6118;DHT22;3089;48.202;11.510;2023-04-24T07:42:40;11.90;99.90
6118;DHT22;3089;48.202;11.510;2023-04-24T07:45:09;11.90;99.90
6118;DHT22;3089;48.202;11.510;2023-04-24T07:47:37;11.90;99.90
6118;DHT22;3089;48.202;11.510;2023-04-24T07:50:06;11.90;99.90
6118;DHT22;3089;48.202;11.510;2023-04-24T07:52:34;11.90;99.90
6118;DHT22;3089;48.202;11.510;2023-04-24T07:55:02;11.80;99.90
6118;DHT22;3089;48.202;11.510;2023-04-24T07:57:30;11.90;99.90
6118;DHT22;3089;48.202;11.510;2023-04-24T07:59:58;11.90;99.90
6118;DHT22;3089;48.202;11.510;2023-04-24T08:02:27;11.90;99.90
6118;DHT22;3089;48.202;11.510;2023-04-24T08:04:55;11.90;99.90
6118;DHT22;3089;48.202;11.510;2023-04-24T08:07:26;11.90;99.90
6118;DHT22;3089;48.202;11.510;2023-04-24T08:09:54;11.90;99.90
6118;DHT22;3089;48.202;11.510;2023-04-24T08:12:21;11.90;99.90
6118;DHT22;3089;48.202;11.510;2023-04-24T08:14:49;11.80;99.90
6118;DHT22;3089;48.202;11.510;2023-04-24T08:17:17;11.80;99.90
6118;DHT22;3089;48.202;11.510;2023-04-24T08:19:46;11.90;99.90
6118;DHT22;3089;48.202;11.510;2023-04-24T08:22:15;11.70;99.90
6118;DHT22;3089;48.202;11.510;2023-04-24T08:24:43;11.70;99.90
6118;DHT22;3089;48.202;11.510;2023-04-24T08:27:11;11.70;99.90
6118;DHT22;3089;48.202;11.510;2023-04-24T08:29:38;11.70;99.90
6118;DHT22;3089;48.202;11.510;2023-04-24T08:32:06;11.70;99.90
6118;DHT22;3089;48.202;11.510;2023-04-24T08:34:34;11.70;99.90
6118;DHT22;3089;48.202;11.510;2023-04-24T08:37:04;11.60;99.90
6118;DHT22;3089;48.202;11.510;2023-04-24T08:39:31;11.60;99.90
6118;DHT22;3089;48.202;11.510;2023-04-24T08:42:00;11.50;99.90
6118;DHT22;3089;48.202;11.510;2023-04-24T08:44:32;11.50;99.90
6118;DHT22;3089;48.202;11.510;2023-04-24T08:47:00;11.80;99.90
6118;DHT22;3089;48.202;11.510;2023-04-24T08:49:29;11.90;99.90
6118;DHT22;3089;48.202;11.510;2023-04-24T08:51:57;11.80;99.90
6118;DHT22;3089;48.202;11.510;2023-04-24T08:54:28;12.00;99.90
6118;DHT22;3089;48.202;11.510;2023-04-24T08:56:59;12.00;99.90
6118;DHT22;3089;48.202;11.510;2023-04-24T08:59:28;12.10;99.90
6118;DHT22;3089;48.202;11.510;2023-04-24T09:01:57;12.00;99.90
6118;DHT22;3089;48.202;11.510;2023-04-24T09:04:28;11.70;99.90
6118;DHT22;3089;48.202;11.510;2023-04-24T09:06:58;11.80;99.90
6118;DHT22;3089;48.202;11.510;2023-04-24T09:09:28;11.60;99.90
6118;DHT22;3089;48.202;11.510;2023-04-24T09:11:56;11.80;99.90
6118;DHT22;3089;48.202;11.510;2023-04-24T09:14:26;11.90;99.90
6118;DHT22;3089;48.202;11.510;2023-04-24T09:16:54;12.00;99.90
6118;DHT22;3089;48.202;11.510;2023-04-24T09:19:22;12.00;99.90
6118;DHT22;3089;48.202;11.510;2023-04-24T09:21:52;12.00;99.90
6118;DHT22;3089;48.202;11.510;2023-04-24T09:24:21;12.00;99.90
6118;DHT22;3089;48.202;11.510;2023-04-24T09:26:56;12.10;99.90
6118;DHT22;3089;48.202;11.510;2023-04-24T09:29:25;12.10;99.90
6118;DHT22;3089;48.202;11.510;2023-04-24T09:31:53;12.10;99.90
6118;DHT22;3089;48.202;11.510;2023-04-24T09:34:21;12.20;99.90
6118;DHT22;3089;48.202;11.510;2023-04-24T09:36:50;12.20;99.90
6118;DHT22;3089;48.202;11.510;2023-04-24T09:39:18;12.20;99.90
6118;DHT22;3089;48.202;11.510;2023-04-24T09:41:48;12.30;99.90
6118;DHT22;3089;48.202;11.510;2023-04-24T09:44:19;12.40;99.90
6118;DHT22;3089;48.202;11.510;2023-04-24T09:46:50;12.30;99.90
6118;DHT22;3089;48.202;11.510;2023-04-24T09:49:23;12.40;99.90
6118;DHT22;3089;48.202;11.510;2023-04-24T09:51:52;12.40;99.90
6118;DHT22;3089;48.202;11.510;2023-04-24T09:54:21;12.50;99.90
6118;DHT22;3089;48.202;11.510;2023-04-24T09:56:50;12.80;99.90
6118;DHT22;3089;48.202;11.510;2023-04-24T09:59:19;12.70;99.90
6118;DHT22;3089;48.202;11.510;2023-04-24T10:01:47;12.70;99.90
6118;DHT22;3089;48.202;11.510;2023-04-24T10:04:17;12.80;99.90
6118;DHT22;3089;48.202;11.510;2023-04-24T10:06:46;12.80;99.90
6118;DHT22;3089;48.202;11.510;2023-04-24T10:09:15;12.90;99.90
6118;DHT22;3089;48.202;11.510;2023-04-24T10:11:45;13.10;99.90
6118;DHT22;3089;48.202;11.510;2023-04-24T10:14:16;13.10;99.90
6118;DHT22;3089;48.202;11.510;2023-04-24T10:16:46;13.20;99.90
6118;DHT22;3089;48.202;11.510;2023-04-24T10:19:14;13.20;99.90
6118;DHT22;3089;48.202;11.510;2023-04-24T10:21:43;13.00;99.90
6118;DHT22;3089;48.202;11.510;2023-04-24T10:24:14;13.20;99.90
6118;DHT22;3089;48.202;11.510;2023-04-24T10:26:43;13.30;99.90
6118;DHT22;3089;48.202;11.510;2023-04-24T10:29:12;13.40;99.90
6118;DHT22;3089;48.202;11.510;2023-04-24T10:31:41;13.50;99.90
6118;DHT22;3089;48.202;11.510;2023-04-24T10:34:15;13.50;99.90
6118;DHT22;3089;48.202;11.510;2023-04-24T10:36:48;13.40;99.90
6118;DHT22;3089;48.202;11.510;2023-04-24T10:39:16;13.20;99.90
6118;DHT22;3089;48.202;11.510;2023-04-24T10:41:53;13.00;99.90
6118;DHT22;3089;48.202;11.510;2023-04-24T10:44:24;12.80;99.90
6118;DHT22;3089;48.202;11.510;2023-04-24T10:46:55;12.70;99.90
6118;DHT22;3089;48.202;11.510;2023-04-24T10:49:29;12.30;99.90
6118;DHT22;3089;48.202;11.510;2023-04-24T10:52:01;12.00;99.90
6118;DHT22;3089;48.202;11.510;2023-04-24T10:54:33;12.10;99.90
6118;DHT22;3089;48.202;11.510;2023-04-24T10:57:25;12.10;99.90
6118;DHT22;3089;48.202;11.510;2023-04-24T11:00:13;12.10;99.90
6118;DHT22;3089;48.202;11.510;2023-04-24T11:02:41;12.10;99.90
6118;DHT22;3089;48.202;11.510;2023-04-24T11:05:17;12.20;99.90
6118;DHT22;3089;48.202;11.510;2023-04-24T11:08:09;12.20;99.90
6118;DHT22;3089;48.202;11.510;2023-04-24T11:10:39;12.30;99.90
6118;DHT22;3089;48.202;11.510;2023-04-24T11:13:07;12.40;99.90
6118;DHT22;3089;48.202;11.510;2023-04-24T11:15:38;12.50;99.90
6118;DHT22;3089;48.202;11.510;2023-04-24T11:18:13;12.70;99.90
6118;DHT22;3089;48.202;11.510;2023-04-24T11:20:43;13.10;99.90
6118;DHT22;3089;48.202;11.510;2023-04-24T11:23:12;13.30;99.90
6118;DHT22;3089;48.202;11.510;2023-04-24T11:25:41;13.30;99.90
6118;DHT22;3089;48.202;11.510;2023-04-24T11:28:14;13.00;99.90
6118;DHT22;3089;48.202;11.510;2023-04-24T11:30:43;12.90;99.90
6118;DHT22;3089;48.202;11.510;2023-04-24T11:33:11;13.00;99.90
6118;DHT22;3089;48.202;11.510;2023-04-24T11:35:40;13.00;99.90
6118;DHT22;3089;48.202;11.510;2023-04-24T11:38:10;13.20;99.90
6118;DHT22;3089;48.202;11.510;2023-04-24T11:40:50;13.20;99.90
6118;DHT22;3089;48.202;11.510;2023-04-24T11:43:18;13.20;99.90
6118;DHT22;3089;48.202;11.510;2023-04-24T11:45:48;13.60;99.90
6118;DHT22;3089;48.202;11.510;2023-04-24T11:48:19;13.90;99.90
6118;DHT22;3089;48.202;11.510;2023-04-24T11:50:49;14.00;99.90
6118;DHT22;3089;48.202;11.510;2023-04-24T11:53:21;14.40;99.90
6118;DHT22;3089;48.202;11.510;2023-04-24T11:55:49;14.50;99.90
6118;DHT22;3089;48.202;11.510;2023-04-24T11:58:20;14.70;99.90
6118;DHT22;3089;48.202;11.510;2023-04-24T12:00:56;14.60;99.90
6118;DHT22;3089;48.202;11.510;2023-04-24T12:03:24;14.50;99.90
6118;DHT22;3089;48.202;11.510;2023-04-24T12:05:52;14.40;99.90
6118;DHT22;3089;48.202;11.510;2023-04-24T12:08:28;14.20;99.90
6118;DHT22;3089;48.202;11.510;2023-04-24T12:10:57;14.10;99.90
6118;DHT22;3089;48.202;11.510;2023-04-24T12:13:26;14.30;99.90
6118;DHT22;3089;48.202;11.510;2023-04-24T12:15:54;14.70;99.90
6118;DHT22;3089;48.202;11.510;2023-04-24T12:18:22;14.70;99.90
6118;DHT22;3089;48.202;11.510;2023-04-24T12:20:50;14.90;99.90
6118;DHT22;3089;48.202;11.510;2023-04-24T12:26:11;14.90;99.90
6118;DHT22;3089;48.202;11.510;2023-04-24T12:28:39;14.80;99.90
6118;DHT22;3089;48.202;11.510;2023-04-24T12:31:07;14.90;99.90
6118;DHT22;3089;48.202;11.510;2023-04-24T12:33:35;15.20;99.90
6118;DHT22;3089;48.202;11.510;2023-04-24T12:36:04;15.20;99.90
6118;DHT22;3089;48.202;11.510;2023-04-24T12:38:32;15.30;99.90
6118;DHT22;3089;48.202;11.510;2023-04-24T12:41:08;15.30;99.90
6118;DHT22;3089;48.202;11.510;2023-04-24T12:43:37;15.00;99.90
6118;DHT22;3089;48.202;11.510;2023-04-24T12:46:05;15.20;99.90
6118;DHT22;3089;48.202;11.510;2023-04-24T12:48:33;15.20;99.90
6118;DHT22;3089;48.202;11.510;2023-04-24T12:51:01;15.20;99.90
6118;DHT22;3089;48.202;11.510;2023-04-24T12:53:29;14.70;99.90
6118;DHT22;3089;48.202;11.510;2023-04-24T12:55:57;14.40;99.90
6118;DHT22;3089;48.202;11.510;2023-04-24T12:58:25;13.90;99.90
6118;DHT22;3089;48.202;11.510;2023-04-24T13:00:54;13.70;99.90
6118;DHT22;3089;48.202;11.510;2023-04-24T13:03:22;13.60;99.90
6118;DHT22;3089;48.202;11.510;2023-04-24T13:05:50;13.60;99.90
6118;DHT22;3089;48.202;11.510;2023-04-24T13:08:18;13.50;99.90
6118;DHT22;3089;48.202;11.510;2023-04-24T13:10:46;13.40;99.90
6118;DHT22;3089;48.202;11.510;2023-04-24T13:13:14;13.40;99.90
6118;DHT22;3089;48.202;11.510;2023-04-24T13:15:42;13.60;99.90
6118;DHT22;3089;48.202;11.510;2023-04-24T13:18:11;13.80;99.90
6118;DHT22;3089;48.202;11.510;2023-04-24T13:20:39;14.00;99.90
6118;DHT22;3089;48.202;11.510;2023-04-24T13:23:08;14.30;99.90
6118;DHT22;3089;48.202;11.510;2023-04-24T13:25:36;14.60;99.90
6118;DHT22;3089;48.202;11.510;2023-04-24T13:28:05;15.00;99.90
6118;DHT22;3089;48.202;11.510;2023-04-24T13:30:33;15.20;99.90
6118;DHT22;3089;48.202;11.510;2023-04-24T13:33:01;15.30;99.90
6118;DHT22;3089;48.202;11.510;2023-04-24T13:35:31;15.30;99.90
6118;DHT22;3089;48.202;11.510;2023-04-24T13:37:58;15.20;99.90
6118;DHT22;3089;48.202;11.510;2023-04-24T13:40:27;14.80;99.90
6118;DHT22;3089;48.202;11.510;2023-04-24T13:42:55;14.60;99.90
6118;DHT22;3089;48.202;11.510;2023-04-24T13:45:23;14.50;99.90
6118;DHT22;3089;48.202;11.510;2023-04-24T13:47:52;14.50;99.90
6118;DHT22;3089;48.202;11.510;2023-04-24T13:50:21;14.60;99.90
6118;DHT22;3089;48.202;11.510;2023-04-24T13:52:50;14.90;99.90
6118;DHT22;3089;48.202;11.510;2023-04-24T13:55:17;14.70;99.90
6118;DHT22;3089;48.202;11.510;2023-04-24T13:57:45;14.60;99.90
6118;DHT22;3089;48.202;11.510;2023-04-24T14:00:14;14.80;99.90
6118;DHT22;3089;48.202;11.510;2023-04-24T14:02:42;15.10;99.90
6118;DHT22;3089;48.202;11.510;2023-04-24T14:05:10;14.60;99.90
6118;DHT22;3089;48.202;11.510;2023-04-24T14:07:38;14.30;99.90
6118;DHT22;3089;48.202;11.510;2023-04-24T14:10:08;14.20;99.90
6118;DHT22;3089;48.202;11.510;2023-04-24T14:12:36;14.10;99.90
6118;DHT22;3089;48.202;11.510;2023-04-24T14:15:05;14.10;99.90
6118;DHT22;3089;48.202;11.510;2023-04-24T14:17:33;14.10;99.90
6118;DHT22;3089;48.202;11.510;2023-04-24T14:20:01;14.20;99.90
6118;DHT22;3089;48.202;11.510;2023-04-24T14:22:30;14.30;99.90
6118;DHT22;3089;48.202;11.510;2023-04-24T14:24:58;14.50;99.90
6118;DHT22;3089;48.202;11.510;2023-04-24T14:27:27;14.80;99.90
6118;DHT22;3089;48.202;11.510;2023-04-24T14:29:55;15.00;99.90
6118;DHT22;3089;48.202;11.510;2023-04-24T14:32:23;14.90;99.90
6118;DHT22;3089;48.202;11.510;2023-04-24T14:34:51;14.70;99.90
6118;DHT22;3089;48.202;11.510;2023-04-24T14:37:19;14.40;99.90
6118;DHT22;3089;48.202;11.510;2023-04-24T14:39:47;14.40;99.90
6118;DHT22;3089;48.202;11.510;2023-04-24T14:42:27;14.40;99.90
6118;DHT22;3089;48.202;11.510;2023-04-24T14:44:55;14.50;99.90
6118;DHT22;3089;48.202;11.510;2023-04-24T14:47:23;14.60;99.90
6118;DHT22;3089;48.202;11.510;2023-04-24T14:49:51;14.70;99.90
6118;DHT22;3089;48.202;11.510;2023-04-24T14:52:19;14.60;99.90
6118;DHT22;3089;48.202;11.510;2023-04-24T14:54:47;14.50;99.90
6118;DHT22;3089;48.202;11.510;2023-04-24T14:57:15;14.40;99.90
6118;DHT22;3089;48.202;11.510;2023-04-24T14:59:44;14.50;99.90
6118;DHT22;3089;48.202;11.510;2023-04-24T15:02:12;14.50;99.90
6118;DHT22;3089;48.202;11.510;2023-04-24T15:04:43;14.60;99.90
6118;DHT22;3089;48.202;11.510;2023-04-24T15:07:11;14.60;99.90
6118;DHT22;3089;48.202;11.510;2023-04-24T15:09:39;14.70;99.90
6118;DHT22;3089;48.202;11.510;2023-04-24T15:12:07;14.60;99.90
6118;DHT22;3089;48.202;11.510;2023-04-24T15:14:35;14.40;99.90
6118;DHT22;3089;48.202;11.510;2023-04-24T15:17:04;14.30;99.90
6118;DHT22;3089;48.202;11.510;2023-04-24T15:19:32;14.40;99.90
6118;DHT22;3089;48.202;11.510;2023-04-24T15:22:00;14.10;99.90
6118;DHT22;3089;48.202;11.510;2023-04-24T15:24:28;14.20;99.90
6118;DHT22;3089;48.202;11.510;2023-04-24T15:26:55;14.10;99.90
6118;DHT22;3089;48.202;11.510;2023-04-24T15:29:26;14.10;99.90
6118;DHT22;3089;48.202;11.510;2023-04-24T15:31:54;14.10;99.90
6118;DHT22;3089;48.202;11.510;2023-04-24T15:34:24;14.10;99.90
6118;DHT22;3089;48.202;11.510;2023-04-24T15:36:51;14.30;99.90
6118;DHT22;3089;48.202;11.510;2023-04-24T15:39:22;14.20;99.90
6118;DHT22;3089;48.202;11.510;2023-04-24T15:41:50;14.10;99.90
6118;DHT22;3089;48.202;11.510;2023-04-24T15:44:20;14.00;99.90
6118;DHT22;3089;48.202;11.510;2023-04-24T15:46:48;13.90;99.90
6118;DHT22;3089;48.202;11.510;2023-04-24T15:49:17;14.00;99.90
6118;DHT22;3089;48.202;11.510;2023-04-24T15:51:47;14.10;99.90
6118;DHT22;3089;48.202;11.510;2023-04-24T15:54:14;13.90;99.90
6118;DHT22;3089;48.202;11.510;2023-04-24T15:56:42;13.80;99.90
6118;DHT22;3089;48.202;11.510;2023-04-24T15:59:11;13.60;99.90